createdAt,value
2017-12-22T00:00:19.780Z,0
2017-12-22T00:01:00.365Z,0
2017-12-22T00:01:40.901Z,0
2017-12-22T00:02:21.419Z,0
2017-12-22T00:03:01.937Z,0
2017-12-22T00:03:42.454Z,0
2017-12-22T00:04:22.993Z,0
2017-12-22T00:05:03.477Z,0
2017-12-22T00:05:43.991Z,0
2017-12-22T00:06:24.521Z,0
2017-12-22T00:07:05.033Z,0
2017-12-22T00:07:45.552Z,0
2017-12-22T00:08:26.094Z,0
2017-12-22T00:09:06.613Z,0
2017-12-22T00:09:47.120Z,0
2017-12-22T00:10:27.644Z,0
2017-12-22T00:11:08.144Z,0
2017-12-22T00:11:48.650Z,0
2017-12-22T00:12:29.175Z,0
2017-12-22T00:13:09.699Z,0
2017-12-22T00:13:50.201Z,0
2017-12-22T00:14:30.742Z,0
2017-12-22T00:15:11.282Z,0
2017-12-22T00:15:51.782Z,0
2017-12-22T00:16:32.297Z,0
2017-12-22T00:17:12.837Z,0
2017-12-22T00:17:53.388Z,0
2017-12-22T00:18:33.929Z,0
2017-12-22T00:19:14.439Z,0
2017-12-22T00:19:54.965Z,0
2017-12-22T00:20:35.501Z,0
2017-12-22T00:21:16.050Z,0
2017-12-22T00:21:56.583Z,0
2017-12-22T00:22:37.100Z,0
2017-12-22T00:23:17.629Z,0
2017-12-22T00:23:58.150Z,0
2017-12-22T00:24:38.679Z,0
2017-12-22T00:25:19.201Z,0
2017-12-22T00:25:59.708Z,0
2017-12-22T00:26:40.228Z,0
2017-12-22T00:27:20.801Z,0
2017-12-22T00:28:01.252Z,0
2017-12-22T00:28:41.766Z,0
2017-12-22T00:29:22.270Z,0
2017-12-22T00:30:02.777Z,0
2017-12-22T00:30:43.285Z,0
2017-12-22T00:31:23.792Z,0
2017-12-22T00:32:04.297Z,0
2017-12-22T00:32:44.814Z,0
2017-12-22T00:33:25.322Z,0
2017-12-22T00:34:05.823Z,0
2017-12-22T00:34:46.352Z,0
2017-12-22T00:35:26.887Z,0
2017-12-22T00:36:07.416Z,0
2017-12-22T00:36:47.932Z,0
2017-12-22T00:37:28.460Z,0
2017-12-22T00:38:08.987Z,0
2017-12-22T00:38:49.508Z,0
2017-12-22T00:39:30.004Z,0
2017-12-22T00:40:10.581Z,0
2017-12-22T00:40:51.149Z,0
2017-12-22T00:41:31.689Z,0
2017-12-22T00:42:12.201Z,0
2017-12-22T00:42:52.739Z,0
2017-12-22T00:43:33.253Z,0
2017-12-22T00:44:13.761Z,0
2017-12-22T00:44:54.291Z,0
2017-12-22T00:45:34.813Z,0
2017-12-22T00:46:15.324Z,0
2017-12-22T00:46:55.846Z,0
2017-12-22T00:47:36.368Z,0
2017-12-22T00:48:16.894Z,0
2017-12-22T00:48:57.411Z,0
2017-12-22T00:49:37.952Z,0
2017-12-22T00:50:18.472Z,0
2017-12-22T00:50:58.991Z,0
2017-12-22T00:51:39.515Z,0
2017-12-22T00:52:20.043Z,0
2017-12-22T00:53:00.616Z,0
2017-12-22T00:53:41.138Z,0
2017-12-22T00:54:21.641Z,0
2017-12-22T00:55:02.174Z,0
2017-12-22T00:55:42.663Z,0
2017-12-22T00:56:23.176Z,0
2017-12-22T00:57:03.695Z,0
2017-12-22T00:57:44.197Z,0
2017-12-22T00:58:24.716Z,0
2017-12-22T00:59:05.243Z,0
2017-12-22T00:59:45.765Z,0
2017-12-22T01:00:26.263Z,0
2017-12-22T01:01:06.807Z,0
2017-12-22T01:01:47.316Z,0
2017-12-22T01:02:27.843Z,0
2017-12-22T01:03:08.422Z,0
2017-12-22T01:03:48.947Z,0
2017-12-22T01:04:29.468Z,0
2017-12-22T01:05:10.001Z,0
2017-12-22T01:05:50.543Z,0
2017-12-22T01:06:31.061Z,0
2017-12-22T01:07:11.567Z,0
2017-12-22T01:07:52.095Z,0
2017-12-22T01:08:32.595Z,0
2017-12-22T01:09:13.117Z,0
2017-12-22T01:09:53.656Z,0
2017-12-22T01:10:34.154Z,0
2017-12-22T01:11:14.656Z,0
2017-12-22T01:11:55.193Z,0
2017-12-22T01:12:35.704Z,0
2017-12-22T01:13:16.218Z,0
2017-12-22T01:13:56.762Z,0
2017-12-22T01:14:37.264Z,0
2017-12-22T01:15:17.779Z,0
2017-12-22T01:15:58.297Z,0
2017-12-22T01:16:38.860Z,0
2017-12-22T01:17:19.351Z,0
2017-12-22T01:17:59.866Z,0
2017-12-22T01:18:40.379Z,0
2017-12-22T01:19:20.876Z,0
2017-12-22T01:20:01.419Z,0
2017-12-22T01:20:41.957Z,0
2017-12-22T01:21:22.466Z,0
2017-12-22T01:22:02.985Z,0
2017-12-22T01:22:43.516Z,0
2017-12-22T01:23:24.038Z,0
2017-12-22T01:24:04.572Z,0
2017-12-22T01:24:45.090Z,0
2017-12-22T01:25:25.685Z,0
2017-12-22T01:26:06.170Z,0
2017-12-22T01:26:46.685Z,0
2017-12-22T01:27:27.206Z,0
2017-12-22T01:28:07.727Z,0
2017-12-22T01:28:48.249Z,0
2017-12-22T01:29:28.803Z,0
2017-12-22T01:30:09.355Z,0
2017-12-22T01:30:49.892Z,0
2017-12-22T01:31:30.375Z,0
2017-12-22T01:32:10.897Z,0
2017-12-22T01:32:51.417Z,0
2017-12-22T01:33:31.933Z,0
2017-12-22T01:34:12.460Z,0
2017-12-22T01:34:52.973Z,0
2017-12-22T01:35:33.474Z,0
2017-12-22T01:36:14.003Z,0
2017-12-22T01:36:54.522Z,0
2017-12-22T01:37:35.026Z,0
2017-12-22T01:38:15.567Z,0
2017-12-22T01:38:56.056Z,0
2017-12-22T01:39:36.552Z,0
2017-12-22T01:40:17.059Z,0
2017-12-22T01:40:57.588Z,0
2017-12-22T01:41:38.116Z,0
2017-12-22T01:42:18.616Z,0
2017-12-22T01:42:59.142Z,0
2017-12-22T01:43:39.666Z,0
2017-12-22T01:44:20.171Z,0
2017-12-22T01:45:00.673Z,0
2017-12-22T01:45:41.203Z,0
2017-12-22T01:46:21.725Z,0
2017-12-22T01:47:02.228Z,0
2017-12-22T01:47:42.774Z,0
2017-12-22T01:48:23.286Z,0
2017-12-22T01:49:03.804Z,0
2017-12-22T01:49:44.314Z,0
2017-12-22T01:50:24.827Z,0
2017-12-22T01:51:05.349Z,0
2017-12-22T01:51:45.870Z,0
2017-12-22T01:52:26.384Z,0
2017-12-22T01:53:06.905Z,0
2017-12-22T01:53:47.442Z,0
2017-12-22T01:54:27.961Z,0
2017-12-22T01:55:08.490Z,0
2017-12-22T01:55:49.003Z,0
2017-12-22T01:56:29.491Z,0
2017-12-22T01:57:10.015Z,0
2017-12-22T01:57:50.541Z,0
2017-12-22T01:58:31.075Z,0
2017-12-22T01:59:11.604Z,0
2017-12-22T01:59:52.118Z,0
2017-12-22T02:00:32.632Z,0
2017-12-22T02:01:13.156Z,0
2017-12-22T02:01:53.711Z,0
2017-12-22T02:02:34.246Z,0
2017-12-22T02:03:14.772Z,0
2017-12-22T02:03:55.302Z,0
2017-12-22T02:04:35.813Z,0
2017-12-22T02:05:16.329Z,0
2017-12-22T02:05:56.848Z,0
2017-12-22T02:06:37.366Z,0
2017-12-22T02:07:17.896Z,0
2017-12-22T02:07:58.419Z,0
2017-12-22T02:08:38.928Z,0
2017-12-22T02:09:19.452Z,0
2017-12-22T02:10:00.013Z,0
2017-12-22T02:10:40.529Z,0
2017-12-22T02:11:21.052Z,0
2017-12-22T02:12:01.565Z,0
2017-12-22T02:12:42.097Z,0
2017-12-22T02:13:22.615Z,0
2017-12-22T02:14:03.144Z,0
2017-12-22T02:14:43.663Z,0
2017-12-22T02:15:24.183Z,0
2017-12-22T02:16:04.713Z,0
2017-12-22T02:16:45.226Z,0
2017-12-22T02:17:25.749Z,0
2017-12-22T02:18:06.264Z,0
2017-12-22T02:18:46.790Z,0
2017-12-22T02:19:27.313Z,0
2017-12-22T02:20:07.834Z,0
2017-12-22T02:20:48.358Z,0
2017-12-22T02:21:28.873Z,0
2017-12-22T02:22:09.376Z,0
2017-12-22T02:22:49.907Z,0
2017-12-22T02:23:30.442Z,0
2017-12-22T02:24:10.986Z,0
2017-12-22T02:24:51.503Z,0
2017-12-22T02:25:32.018Z,0
2017-12-22T02:26:12.542Z,0
2017-12-22T02:26:53.064Z,0
2017-12-22T02:27:33.575Z,0
2017-12-22T02:28:14.115Z,0
2017-12-22T02:28:54.641Z,0
2017-12-22T02:29:35.180Z,0
2017-12-22T02:30:15.692Z,0
2017-12-22T02:30:56.196Z,0
2017-12-22T02:31:36.732Z,0
2017-12-22T02:32:17.219Z,0
2017-12-22T02:32:57.743Z,0
2017-12-22T02:33:38.259Z,0
2017-12-22T02:34:18.767Z,0
2017-12-22T02:34:59.291Z,0
2017-12-22T02:35:39.789Z,0
2017-12-22T02:36:20.307Z,0
2017-12-22T02:37:00.843Z,0
2017-12-22T02:37:41.337Z,0
2017-12-22T02:38:21.850Z,0
2017-12-22T02:39:02.369Z,0
2017-12-22T02:39:42.868Z,0
2017-12-22T02:40:23.415Z,0
2017-12-22T02:41:03.950Z,0
2017-12-22T02:41:44.462Z,0
2017-12-22T02:42:24.991Z,0
2017-12-22T02:43:05.505Z,0
2017-12-22T02:43:45.997Z,0
2017-12-22T02:44:26.514Z,0
2017-12-22T02:45:07.052Z,0
2017-12-22T02:45:47.560Z,0
2017-12-22T02:46:28.071Z,0
2017-12-22T02:47:08.580Z,0
2017-12-22T02:47:49.098Z,0
2017-12-22T02:48:29.610Z,0
2017-12-22T02:49:10.143Z,0
2017-12-22T02:49:50.660Z,0
2017-12-22T02:50:31.166Z,0
2017-12-22T02:51:11.694Z,0
2017-12-22T02:51:52.189Z,0
2017-12-22T02:52:32.794Z,0
2017-12-22T02:53:13.195Z,0
2017-12-22T02:53:53.713Z,0
2017-12-22T02:54:34.240Z,0
2017-12-22T02:55:14.761Z,0
2017-12-22T02:55:55.285Z,0
2017-12-22T02:56:35.795Z,0
2017-12-22T02:57:16.297Z,0
2017-12-22T02:57:56.844Z,0
2017-12-22T02:58:37.319Z,0
2017-12-22T02:59:17.834Z,0
2017-12-22T02:59:58.361Z,0
2017-12-22T03:00:38.889Z,0
2017-12-22T03:01:19.403Z,0
2017-12-22T03:01:59.895Z,0
2017-12-22T03:02:40.397Z,0
2017-12-22T03:03:20.904Z,0
2017-12-22T03:04:01.429Z,0
2017-12-22T03:04:41.948Z,0
2017-12-22T03:05:22.469Z,0
2017-12-22T03:06:03.001Z,0
2017-12-22T03:06:43.536Z,0
2017-12-22T03:07:24.042Z,0
2017-12-22T03:08:04.552Z,0
2017-12-22T03:08:45.080Z,0
2017-12-22T03:09:25.601Z,0
2017-12-22T03:10:06.097Z,0
2017-12-22T03:10:46.599Z,0
2017-12-22T03:11:27.138Z,0
2017-12-22T03:12:07.639Z,0
2017-12-22T03:12:48.165Z,0
2017-12-22T03:13:28.677Z,0
2017-12-22T03:14:09.197Z,0
2017-12-22T03:14:49.704Z,0
2017-12-22T03:15:30.213Z,0
2017-12-22T03:16:10.734Z,0
2017-12-22T03:16:51.243Z,0
2017-12-22T03:17:31.771Z,0
2017-12-22T03:18:12.304Z,0
2017-12-22T03:18:52.842Z,0
2017-12-22T03:19:33.336Z,0
2017-12-22T03:20:13.853Z,0
2017-12-22T03:20:54.390Z,0
2017-12-22T03:21:34.886Z,0
2017-12-22T03:22:15.398Z,0
2017-12-22T03:22:55.941Z,0
2017-12-22T03:23:36.457Z,0
2017-12-22T03:24:16.981Z,0
2017-12-22T03:24:57.499Z,0
2017-12-22T03:25:38.035Z,0
2017-12-22T03:26:18.546Z,0
2017-12-22T03:26:59.053Z,0
2017-12-22T03:27:39.689Z,0
2017-12-22T03:28:20.153Z,0
2017-12-22T03:29:00.664Z,0
2017-12-22T03:29:41.160Z,0
2017-12-22T03:30:21.698Z,0
2017-12-22T03:31:02.247Z,0
2017-12-22T03:31:42.745Z,0
2017-12-22T03:32:23.252Z,0
2017-12-22T03:33:03.779Z,0
2017-12-22T03:33:44.289Z,0
2017-12-22T03:34:24.803Z,0
2017-12-22T03:35:05.371Z,0
2017-12-22T03:35:45.897Z,0
2017-12-22T03:36:26.406Z,0
2017-12-22T03:37:06.912Z,0
2017-12-22T03:37:47.420Z,0
2017-12-22T03:38:27.937Z,0
2017-12-22T03:39:08.456Z,0
2017-12-22T03:39:48.982Z,0
2017-12-22T03:40:29.486Z,0
2017-12-22T03:41:10.006Z,0
2017-12-22T03:41:50.544Z,0
2017-12-22T03:42:31.072Z,0
2017-12-22T03:43:11.591Z,0
2017-12-22T03:43:52.106Z,0
2017-12-22T03:44:32.637Z,0
2017-12-22T03:45:13.183Z,0
2017-12-22T03:45:53.692Z,0
2017-12-22T03:46:34.216Z,0
2017-12-22T03:47:14.742Z,0
2017-12-22T03:47:55.249Z,0
2017-12-22T03:48:35.774Z,0
2017-12-22T03:49:16.316Z,0
2017-12-22T03:49:56.824Z,0
2017-12-22T03:50:37.373Z,0
2017-12-22T03:51:17.893Z,0
2017-12-22T03:51:58.409Z,0
2017-12-22T03:52:38.945Z,0
2017-12-22T03:53:19.493Z,0
2017-12-22T03:53:59.986Z,0
2017-12-22T03:54:40.507Z,0
2017-12-22T03:55:21.040Z,0
2017-12-22T03:56:01.626Z,0
2017-12-22T03:56:42.146Z,0
2017-12-22T03:57:22.666Z,0
2017-12-22T03:58:03.194Z,0
2017-12-22T03:58:43.722Z,0
2017-12-22T03:59:24.237Z,0
2017-12-22T04:00:04.758Z,0
2017-12-22T04:00:45.292Z,0
2017-12-22T04:01:25.810Z,0
2017-12-22T04:02:06.338Z,0
2017-12-22T04:02:46.830Z,0
2017-12-22T04:03:27.352Z,0
2017-12-22T04:04:07.864Z,0
2017-12-22T04:04:48.382Z,0
2017-12-22T04:05:28.896Z,0
2017-12-22T04:06:09.414Z,0
2017-12-22T04:06:49.928Z,0
2017-12-22T04:07:30.459Z,0
2017-12-22T04:08:10.971Z,0
2017-12-22T04:08:51.771Z,0
2017-12-22T04:09:33.272Z,0
2017-12-22T04:10:13.846Z,0
2017-12-22T04:10:54.341Z,0
2017-12-22T04:11:34.855Z,0
2017-12-22T04:12:15.361Z,0
2017-12-22T04:12:55.905Z,0
2017-12-22T04:13:36.424Z,0
2017-12-22T04:14:16.953Z,0
2017-12-22T04:14:57.471Z,0
2017-12-22T04:15:37.999Z,0
2017-12-22T04:16:18.516Z,0
2017-12-22T04:16:59.051Z,0
2017-12-22T04:17:39.566Z,0
2017-12-22T04:18:20.076Z,0
2017-12-22T04:19:00.598Z,0
2017-12-22T04:19:41.085Z,0
2017-12-22T04:20:21.607Z,0
2017-12-22T04:21:02.184Z,0
2017-12-22T04:21:42.712Z,0
2017-12-22T04:22:23.224Z,0
2017-12-22T04:23:03.731Z,0
2017-12-22T04:23:44.245Z,0
2017-12-22T04:24:24.818Z,0
2017-12-22T04:25:05.345Z,0
2017-12-22T04:25:45.854Z,0
2017-12-22T04:26:26.388Z,0
2017-12-22T04:27:06.893Z,0
2017-12-22T04:27:47.450Z,0
2017-12-22T04:28:27.970Z,0
2017-12-22T04:29:08.486Z,0
2017-12-22T04:29:48.992Z,0
2017-12-22T04:30:29.498Z,0
2017-12-22T04:31:10.015Z,0
2017-12-22T04:31:50.535Z,0
2017-12-22T04:32:31.040Z,0
2017-12-22T04:33:11.561Z,0
2017-12-22T04:33:52.074Z,0
2017-12-22T04:34:32.598Z,0
2017-12-22T04:35:13.102Z,0
2017-12-22T04:35:53.619Z,0
2017-12-22T04:36:34.152Z,0
2017-12-22T04:37:14.669Z,0
2017-12-22T04:37:55.188Z,0
2017-12-22T04:38:35.720Z,0
2017-12-22T04:39:16.266Z,0
2017-12-22T04:39:56.785Z,0
2017-12-22T04:40:37.308Z,0
2017-12-22T04:41:17.808Z,0
2017-12-22T04:41:58.337Z,0
2017-12-22T04:42:38.852Z,0
2017-12-22T04:43:19.368Z,0
2017-12-22T04:43:59.882Z,0
2017-12-22T04:44:40.394Z,0
2017-12-22T04:45:20.886Z,0
2017-12-22T04:46:01.438Z,0
2017-12-22T04:46:41.983Z,0
2017-12-22T04:47:22.504Z,0
2017-12-22T04:48:03.015Z,0
2017-12-22T04:48:43.509Z,0
2017-12-22T04:49:24.037Z,0
2017-12-22T04:50:04.563Z,0
2017-12-22T04:50:45.082Z,0
2017-12-22T04:51:25.604Z,0
2017-12-22T04:52:06.122Z,0
2017-12-22T04:52:46.663Z,0
2017-12-22T04:53:27.168Z,0
2017-12-22T04:54:07.679Z,0
2017-12-22T04:54:48.200Z,0
2017-12-22T04:55:28.712Z,0
2017-12-22T04:56:09.228Z,0
2017-12-22T04:56:49.764Z,0
2017-12-22T04:57:30.277Z,0
2017-12-22T04:58:10.813Z,0
2017-12-22T04:58:51.334Z,0
2017-12-22T04:59:31.860Z,0
2017-12-22T05:00:12.361Z,0
2017-12-22T05:00:52.891Z,0
2017-12-22T05:01:33.460Z,0
2017-12-22T05:02:13.947Z,0
2017-12-22T05:02:54.479Z,0
2017-12-22T05:03:34.987Z,0
2017-12-22T05:04:15.506Z,0
2017-12-22T05:04:56.017Z,0
2017-12-22T05:05:36.533Z,0
2017-12-22T05:06:17.057Z,0
2017-12-22T05:06:57.584Z,0
2017-12-22T05:07:38.112Z,0
2017-12-22T05:08:18.693Z,0
2017-12-22T05:08:59.202Z,0
2017-12-22T05:09:39.721Z,0
2017-12-22T05:10:20.245Z,0
2017-12-22T05:11:00.765Z,0
2017-12-22T05:11:41.271Z,0
2017-12-22T05:12:21.782Z,0
2017-12-22T05:13:02.362Z,0
2017-12-22T05:13:42.857Z,0
2017-12-22T05:14:23.462Z,0
2017-12-22T05:15:03.937Z,0
2017-12-22T05:15:44.467Z,0
2017-12-22T05:16:24.983Z,0
2017-12-22T05:17:05.503Z,0
2017-12-22T05:17:46.007Z,0
2017-12-22T05:18:26.515Z,0
2017-12-22T05:19:07.032Z,0
2017-12-22T05:19:47.565Z,0
2017-12-22T05:20:28.060Z,0
2017-12-22T05:21:08.597Z,0
2017-12-22T05:21:49.124Z,0
2017-12-22T05:22:29.635Z,0
2017-12-22T05:23:10.149Z,0
2017-12-22T05:23:50.707Z,0
2017-12-22T05:24:31.234Z,0
2017-12-22T05:25:11.775Z,0
2017-12-22T05:25:52.302Z,0
2017-12-22T05:26:32.820Z,0
2017-12-22T05:27:13.341Z,0
2017-12-22T05:27:53.857Z,0
2017-12-22T05:28:34.374Z,0
2017-12-22T05:29:14.872Z,0
2017-12-22T05:29:55.430Z,0
2017-12-22T05:30:35.905Z,0
2017-12-22T05:31:16.430Z,0
2017-12-22T05:31:56.960Z,0
2017-12-22T05:32:37.467Z,0
2017-12-22T05:33:17.986Z,0
2017-12-22T05:33:58.523Z,0
2017-12-22T05:34:39.036Z,0
2017-12-22T05:35:19.564Z,0
2017-12-22T05:36:00.099Z,0
2017-12-22T05:36:40.603Z,0
2017-12-22T05:37:21.121Z,0
2017-12-22T05:38:01.643Z,0
2017-12-22T05:38:42.186Z,0
2017-12-22T05:39:22.683Z,0
2017-12-22T05:40:03.204Z,0
2017-12-22T05:40:43.718Z,0
2017-12-22T05:41:24.238Z,0
2017-12-22T05:42:04.740Z,0
2017-12-22T05:42:46.141Z,0
2017-12-22T05:43:26.644Z,0
2017-12-22T05:44:07.162Z,0
2017-12-22T05:44:47.733Z,0
2017-12-22T05:45:28.198Z,0
2017-12-22T05:46:08.751Z,0
2017-12-22T05:46:49.297Z,0
2017-12-22T05:47:29.800Z,0
2017-12-22T05:48:10.302Z,0
2017-12-22T05:48:50.841Z,0
2017-12-22T05:49:31.383Z,0
2017-12-22T05:50:11.881Z,0
2017-12-22T05:50:52.399Z,0
2017-12-22T05:51:32.953Z,0
2017-12-22T05:52:13.458Z,0
2017-12-22T05:52:54.051Z,0
2017-12-22T05:53:34.583Z,0
2017-12-22T05:54:15.082Z,0
2017-12-22T05:54:55.602Z,0
2017-12-22T05:55:36.169Z,0
2017-12-22T05:56:16.693Z,0
2017-12-22T05:56:57.219Z,0
2017-12-22T05:57:37.758Z,0
2017-12-22T05:58:18.285Z,0
2017-12-22T05:58:58.841Z,0
2017-12-22T05:59:39.380Z,0
2017-12-22T06:00:19.914Z,0
2017-12-22T06:01:00.433Z,0
2017-12-22T06:01:40.924Z,0
2017-12-22T06:02:21.451Z,0
2017-12-22T06:03:02.020Z,0
2017-12-22T06:03:42.508Z,0
2017-12-22T06:04:23.006Z,0
2017-12-22T06:05:03.526Z,0
2017-12-22T06:05:44.047Z,0
2017-12-22T06:06:24.571Z,0
2017-12-22T06:07:05.090Z,0
2017-12-22T06:07:45.614Z,0
2017-12-22T06:08:26.112Z,0
2017-12-22T06:09:06.640Z,0
2017-12-22T06:09:47.146Z,0
2017-12-22T06:10:27.663Z,0
2017-12-22T06:11:08.173Z,0
2017-12-22T06:11:48.684Z,0
2017-12-22T06:12:29.188Z,0
2017-12-22T06:13:09.695Z,0
2017-12-22T06:13:50.208Z,0
2017-12-22T06:14:30.725Z,0
2017-12-22T06:15:11.247Z,0
2017-12-22T06:15:51.771Z,0
2017-12-22T06:16:32.295Z,0
2017-12-22T06:17:12.842Z,0
2017-12-22T06:17:53.393Z,0
2017-12-22T06:18:33.909Z,0
2017-12-22T06:19:14.431Z,0
2017-12-22T06:19:54.945Z,0
2017-12-22T06:20:35.463Z,0
2017-12-22T06:21:15.973Z,0
2017-12-22T06:21:56.513Z,0
2017-12-22T06:22:37.026Z,0
2017-12-22T06:23:17.572Z,0
2017-12-22T06:23:58.115Z,0
2017-12-22T06:24:38.621Z,0
2017-12-22T06:25:19.163Z,0
2017-12-22T06:25:59.693Z,0
2017-12-22T06:26:40.199Z,0
2017-12-22T06:27:20.732Z,0
2017-12-22T06:28:01.243Z,0
2017-12-22T06:28:41.761Z,0
2017-12-22T06:29:22.268Z,0
2017-12-22T06:30:02.796Z,0
2017-12-22T06:30:43.320Z,0
2017-12-22T06:31:23.843Z,0
2017-12-22T06:32:04.359Z,0
2017-12-22T06:32:44.862Z,0
2017-12-22T06:33:25.389Z,0
2017-12-22T06:34:05.918Z,0
2017-12-22T06:34:46.442Z,0
2017-12-22T06:35:26.960Z,0
2017-12-22T06:36:07.510Z,0
2017-12-22T06:36:48.026Z,0
2017-12-22T06:37:28.564Z,0
2017-12-22T06:38:09.084Z,0
2017-12-22T06:38:49.587Z,0
2017-12-22T06:39:30.187Z,0
2017-12-22T06:40:10.716Z,0
2017-12-22T06:40:51.233Z,0
2017-12-22T06:41:31.749Z,0
2017-12-22T06:42:12.309Z,0
2017-12-22T06:42:52.791Z,0
2017-12-22T06:43:33.312Z,0
2017-12-22T06:44:13.810Z,0
2017-12-22T06:44:54.314Z,0
2017-12-22T06:45:34.829Z,0
2017-12-22T06:46:15.345Z,0
2017-12-22T06:46:55.855Z,0
2017-12-22T06:47:36.386Z,0
2017-12-22T06:48:16.910Z,0
2017-12-22T06:48:57.426Z,0
2017-12-22T06:49:37.955Z,0
2017-12-22T06:50:18.504Z,0
2017-12-22T06:50:59.046Z,0
2017-12-22T06:51:39.548Z,0
2017-12-22T06:52:20.056Z,0
2017-12-22T06:53:00.556Z,0
2017-12-22T06:53:41.060Z,0
2017-12-22T06:54:21.617Z,0
2017-12-22T06:55:02.141Z,0
2017-12-22T06:55:42.704Z,0
2017-12-22T06:56:23.270Z,0
2017-12-22T06:57:03.804Z,0
2017-12-22T06:57:44.342Z,0
2017-12-22T06:58:24.858Z,0
2017-12-22T06:59:05.372Z,0
2017-12-22T06:59:45.903Z,0
2017-12-22T07:00:26.423Z,0
2017-12-22T07:01:06.936Z,0
2017-12-22T07:01:47.520Z,0
2017-12-22T07:02:28.021Z,0
2017-12-22T07:03:08.534Z,0
2017-12-22T07:03:49.118Z,0
2017-12-22T07:04:29.656Z,0
2017-12-22T07:05:10.162Z,0
2017-12-22T07:05:50.684Z,0
2017-12-22T07:06:31.230Z,0
2017-12-22T07:07:11.724Z,0
2017-12-22T07:07:52.232Z,0
2017-12-22T07:08:32.764Z,0
2017-12-22T07:09:13.273Z,0
2017-12-22T07:09:53.783Z,0
2017-12-22T07:10:34.306Z,0
2017-12-22T07:11:14.807Z,0
2017-12-22T07:11:55.340Z,0
2017-12-22T07:12:35.876Z,0
2017-12-22T07:13:16.408Z,0
2017-12-22T07:13:56.919Z,0
2017-12-22T07:14:37.416Z,0
2017-12-22T07:15:17.939Z,0
2017-12-22T07:15:58.479Z,0
2017-12-22T07:16:38.967Z,0
2017-12-22T07:17:19.511Z,0
2017-12-22T07:18:00.014Z,0
2017-12-22T07:18:40.538Z,0
2017-12-22T07:19:21.069Z,0
2017-12-22T07:20:01.612Z,0
2017-12-22T07:20:42.133Z,0
2017-12-22T07:21:22.649Z,0
2017-12-22T07:22:03.190Z,0
2017-12-22T07:22:43.714Z,0
2017-12-22T07:23:24.310Z,0
2017-12-22T07:24:04.837Z,0
2017-12-22T07:24:45.376Z,0
2017-12-22T07:25:25.876Z,0
2017-12-22T07:26:06.391Z,0
2017-12-22T07:26:46.916Z,0
2017-12-22T07:27:27.434Z,0
2017-12-22T07:28:07.952Z,0
2017-12-22T07:28:48.486Z,0
2017-12-22T07:29:29.022Z,0
2017-12-22T07:30:09.534Z,0
2017-12-22T07:30:50.061Z,0
2017-12-22T07:31:30.583Z,0
2017-12-22T07:32:11.230Z,0
2017-12-22T07:32:51.732Z,0
2017-12-22T07:33:32.256Z,0
2017-12-22T07:34:12.774Z,0
2017-12-22T07:34:53.290Z,0
2017-12-22T07:35:33.800Z,0
2017-12-22T07:36:14.305Z,0
2017-12-22T07:36:54.831Z,0
2017-12-22T07:37:35.338Z,0
2017-12-22T07:38:15.864Z,0
2017-12-22T07:38:56.366Z,0
2017-12-22T07:39:36.879Z,0
2017-12-22T07:40:17.407Z,0
2017-12-22T07:40:57.917Z,0
2017-12-22T07:41:38.456Z,0
2017-12-22T07:42:18.976Z,0
2017-12-22T07:42:59.483Z,0
2017-12-22T07:43:40.017Z,0
2017-12-22T07:44:20.546Z,0
2017-12-22T07:45:01.075Z,0
2017-12-22T07:45:41.602Z,0
2017-12-22T07:46:22.117Z,0
2017-12-22T07:47:02.667Z,0
2017-12-22T07:47:43.191Z,0
2017-12-22T07:48:23.705Z,0
2017-12-22T07:49:04.213Z,0
2017-12-22T07:49:44.728Z,0
2017-12-22T07:50:25.228Z,0
2017-12-22T07:51:05.742Z,0
2017-12-22T07:51:46.265Z,0
2017-12-22T07:52:26.790Z,0
2017-12-22T07:53:07.299Z,0
2017-12-22T07:53:47.810Z,5
2017-12-22T07:54:28.331Z,5
2017-12-22T07:55:08.867Z,5
2017-12-22T07:55:49.375Z,5
2017-12-22T07:56:29.883Z,5
2017-12-22T07:57:10.403Z,5
2017-12-22T07:57:50.933Z,5
2017-12-22T07:58:31.467Z,5
2017-12-22T07:59:11.978Z,5
2017-12-22T07:59:52.499Z,5
2017-12-22T08:00:33.031Z,5
2017-12-22T08:01:13.548Z,5
2017-12-22T08:01:54.062Z,5
2017-12-22T08:02:34.624Z,5
2017-12-22T08:03:15.146Z,5
2017-12-22T08:03:55.678Z,5
2017-12-22T08:04:36.198Z,5
2017-12-22T08:05:16.703Z,5
2017-12-22T08:05:57.293Z,5
2017-12-22T08:06:37.795Z,5
2017-12-22T08:07:18.367Z,5
2017-12-22T08:07:58.904Z,5
2017-12-22T08:08:39.407Z,5
2017-12-22T08:09:19.907Z,5
2017-12-22T08:10:00.435Z,5
2017-12-22T08:10:40.951Z,5
2017-12-22T08:11:21.459Z,5
2017-12-22T08:12:01.961Z,5
2017-12-22T08:12:42.491Z,5
2017-12-22T08:13:22.986Z,5
2017-12-22T08:14:03.496Z,5
2017-12-22T08:14:44.005Z,5
2017-12-22T08:15:24.536Z,5
2017-12-22T08:16:05.051Z,5
2017-12-22T08:16:45.573Z,5
2017-12-22T08:17:26.096Z,5
2017-12-22T08:18:06.608Z,5
2017-12-22T08:18:47.137Z,5
2017-12-22T08:19:27.659Z,5
2017-12-22T08:20:08.158Z,5
2017-12-22T08:20:48.672Z,5
2017-12-22T08:21:29.189Z,5
2017-12-22T08:22:09.689Z,10
2017-12-22T08:22:50.220Z,10
2017-12-22T08:23:30.737Z,5
2017-12-22T08:24:11.248Z,5
2017-12-22T08:24:51.779Z,5
2017-12-22T08:25:32.298Z,5
2017-12-22T08:26:12.824Z,5
2017-12-22T08:26:53.335Z,5
2017-12-22T08:27:33.881Z,5
2017-12-22T08:28:14.403Z,5
2017-12-22T08:28:54.900Z,5
2017-12-22T08:29:35.457Z,5
2017-12-22T08:30:15.969Z,5
2017-12-22T08:30:56.514Z,5
2017-12-22T08:31:37.036Z,5
2017-12-22T08:32:17.523Z,5
2017-12-22T08:32:58.061Z,5
2017-12-22T08:33:38.587Z,5
2017-12-22T08:34:19.081Z,5
2017-12-22T08:34:59.613Z,5
2017-12-22T08:35:40.128Z,5
2017-12-22T08:36:20.632Z,5
2017-12-22T08:37:01.149Z,5
2017-12-22T08:37:41.695Z,5
2017-12-22T08:38:22.228Z,10
2017-12-22T08:39:02.746Z,5
2017-12-22T08:39:43.265Z,5
2017-12-22T08:40:23.791Z,5
2017-12-22T08:41:04.302Z,10
2017-12-22T08:41:44.818Z,10
2017-12-22T08:42:25.400Z,10
2017-12-22T08:43:05.919Z,10
2017-12-22T08:43:46.447Z,10
2017-12-22T08:44:26.983Z,5
2017-12-22T08:45:07.507Z,5
2017-12-22T08:45:48.018Z,10
2017-12-22T08:46:28.562Z,10
2017-12-22T08:47:09.092Z,10
2017-12-22T08:47:49.600Z,5
2017-12-22T08:48:30.121Z,5
2017-12-22T08:49:10.650Z,5
2017-12-22T08:49:51.181Z,5
2017-12-22T08:50:31.713Z,5
2017-12-22T08:51:12.247Z,5
2017-12-22T08:51:52.794Z,5
2017-12-22T08:52:33.335Z,10
2017-12-22T08:53:13.848Z,5
2017-12-22T08:53:54.363Z,5
2017-12-22T08:54:34.881Z,5
2017-12-22T08:55:15.402Z,5
2017-12-22T08:55:55.921Z,10
2017-12-22T08:56:36.442Z,10
2017-12-22T08:57:16.976Z,10
2017-12-22T08:57:57.500Z,10
2017-12-22T08:58:38.025Z,10
2017-12-22T08:59:18.560Z,10
2017-12-22T08:59:59.082Z,10
2017-12-22T09:00:39.629Z,10
2017-12-22T09:01:20.162Z,10
2017-12-22T09:02:00.672Z,10
2017-12-22T09:02:41.194Z,10
2017-12-22T09:03:21.726Z,10
2017-12-22T09:04:02.254Z,10
2017-12-22T09:04:42.776Z,10
2017-12-22T09:05:23.298Z,10
2017-12-22T09:06:03.831Z,10
2017-12-22T09:06:44.369Z,10
2017-12-22T09:07:24.907Z,10
2017-12-22T09:08:05.425Z,10
2017-12-22T09:08:45.960Z,10
2017-12-22T09:09:26.480Z,10
2017-12-22T09:10:07.024Z,10
2017-12-22T09:10:47.575Z,10
2017-12-22T09:11:28.090Z,10
2017-12-22T09:12:08.608Z,15
2017-12-22T09:12:49.127Z,10
2017-12-22T09:13:29.696Z,10
2017-12-22T09:14:10.215Z,15
2017-12-22T09:14:50.727Z,15
2017-12-22T09:15:31.220Z,15
2017-12-22T09:16:11.735Z,15
2017-12-22T09:16:52.267Z,15
2017-12-22T09:17:32.791Z,15
2017-12-22T09:18:13.312Z,20
2017-12-22T09:18:55.750Z,20
2017-12-22T09:19:36.281Z,20
2017-12-22T09:20:16.823Z,20
2017-12-22T09:20:57.361Z,20
2017-12-22T09:21:37.892Z,20
2017-12-22T09:22:18.402Z,25
2017-12-22T09:22:58.910Z,30
2017-12-22T09:23:39.470Z,25
2017-12-22T09:24:19.972Z,25
2017-12-22T09:25:00.478Z,25
2017-12-22T09:25:41.033Z,30
2017-12-22T09:26:21.570Z,30
2017-12-22T09:27:02.112Z,30
2017-12-22T09:27:42.641Z,30
2017-12-22T09:28:23.155Z,35
2017-12-22T09:29:03.685Z,30
2017-12-22T09:29:44.215Z,35
2017-12-22T09:30:24.739Z,35
2017-12-22T09:31:05.258Z,35
2017-12-22T09:31:45.779Z,40
2017-12-22T09:32:26.312Z,35
2017-12-22T09:33:06.858Z,40
2017-12-22T09:33:47.361Z,40
2017-12-22T09:34:27.879Z,45
2017-12-22T09:35:08.390Z,40
2017-12-22T09:35:48.913Z,45
2017-12-22T09:36:29.447Z,40
2017-12-22T09:37:09.971Z,40
2017-12-22T09:37:50.519Z,35
2017-12-22T09:38:31.057Z,35
2017-12-22T09:39:11.583Z,35
2017-12-22T09:39:52.098Z,30
2017-12-22T09:40:32.681Z,30
2017-12-22T09:41:13.136Z,35
2017-12-22T09:41:53.676Z,25
2017-12-22T09:42:34.193Z,30
2017-12-22T09:43:14.726Z,25
2017-12-22T09:43:55.275Z,20
2017-12-22T09:44:35.818Z,20
2017-12-22T09:45:16.342Z,20
2017-12-22T09:45:56.876Z,25
2017-12-22T09:46:37.401Z,25
2017-12-22T09:47:17.929Z,25
2017-12-22T09:47:58.448Z,25
2017-12-22T09:48:38.976Z,30
2017-12-22T09:49:19.500Z,30
2017-12-22T09:50:00.028Z,30
2017-12-22T09:50:40.554Z,30
2017-12-22T09:51:21.115Z,35
2017-12-22T09:52:01.574Z,35
2017-12-22T09:52:42.120Z,30
2017-12-22T09:53:22.641Z,35
2017-12-22T09:54:03.147Z,35
2017-12-22T09:54:43.671Z,40
2017-12-22T09:55:24.192Z,40
2017-12-22T09:56:04.723Z,40
2017-12-22T09:56:45.251Z,40